EXS35AJ EGBB-LGSK
Flight info
| Callsign | EXS35AJ |
|---|---|
| Flight time | N/A |
| Altitude | 37000 |
| Route | ADMEX Y321 EMKUK UL612 COWLY Q70 BIG UL9 KONAN DCT KOK DCT SISGA DCT KOMOB DCT PITES DCT EDISA DCT KUNOD DCT GEDSO DCT VEKEN DCT NAVSU DCT SOLGU DCT RUDAR DCT OSLUD DCT MEDUX UM867 KOGAT DCT ERANA UL737 TSL UL617 IBIDI |
| Aircraft | B738/M-SDE2E3FGHIRWXY/LB1 |
Departure
| Time | N/A |
|---|---|
| Airport | Birmingham Airport (EGBB) |
Arrival
| Time | 2026-05-06 12:36 |
|---|---|
| Airport | Skiathos Island National Airport (LGSK) |
| Time | Latitude | Longitude | Altitude | Speed | Heading |
|---|---|---|---|---|---|
| 2026-05-06 11:40 | 42.26659 | 20.80936 | 35048 ft | 473 kts | 130° |
| 2026-05-06 11:41 | 42.24566 | 20.84312 | 35052 ft | 473 kts | 130° |
| 2026-05-06 11:41 | 42.20338 | 20.91119 | 35041 ft | 473 kts | 130° |
| 2026-05-06 11:42 | 42.16102 | 20.97917 | 35053 ft | 472 kts | 130° |
| 2026-05-06 11:42 | 42.11873 | 21.04693 | 35050 ft | 472 kts | 130° |
| 2026-05-06 11:43 | 42.07284 | 21.10985 | 35039 ft | 471 kts | 137° |
| 2026-05-06 11:43 | 42.02504 | 21.16928 | 35051 ft | 472 kts | 138° |
| 2026-05-06 11:44 | 41.95272 | 21.25937 | 35040 ft | 473 kts | 137° |
| 2026-05-06 11:44 | 41.90466 | 21.31988 | 35035 ft | 474 kts | 137° |
| 2026-05-06 11:45 | 41.85646 | 21.38060 | 35030 ft | 475 kts | 137° |
| 2026-05-06 11:45 | 41.80815 | 21.44132 | 35025 ft | 476 kts | 137° |
| 2026-05-06 11:46 | 41.75998 | 21.50174 | 35032 ft | 477 kts | 137° |
| 2026-05-06 11:46 | 41.71137 | 21.56252 | 35024 ft | 477 kts | 137° |
| 2026-05-06 11:47 | 41.66269 | 21.62320 | 35031 ft | 477 kts | 137° |
| 2026-05-06 11:47 | 41.61431 | 21.68344 | 35038 ft | 477 kts | 137° |
| 2026-05-06 11:48 | 41.56573 | 21.74380 | 35038 ft | 477 kts | 137° |
| 2026-05-06 11:48 | 41.51705 | 21.80415 | 35040 ft | 477 kts | 137° |
| 2026-05-06 11:49 | 41.46840 | 21.86432 | 35038 ft | 476 kts | 137° |
| 2026-05-06 11:49 | 41.42016 | 21.92385 | 35055 ft | 475 kts | 137° |
| 2026-05-06 11:50 | 41.37166 | 21.98362 | 35048 ft | 475 kts | 137° |
| 2026-05-06 11:50 | 41.32298 | 22.04342 | 35041 ft | 475 kts | 137° |
| 2026-05-06 11:51 | 41.27424 | 22.10318 | 35045 ft | 476 kts | 137° |
| 2026-05-06 11:51 | 41.22588 | 22.16232 | 35042 ft | 471 kts | 137° |
| 2026-05-06 11:52 | 41.17834 | 22.22039 | 35051 ft | 461 kts | 137° |
| 2026-05-06 11:52 | 41.13004 | 22.27625 | 34815 ft | 460 kts | 140° |
| 2026-05-06 11:53 | 41.10532 | 22.30285 | 34558 ft | 455 kts | 141° |
| 2026-05-06 11:53 | 41.08068 | 22.32900 | 34144 ft | 452 kts | 141° |
| 2026-05-06 11:53 | 41.05654 | 22.35458 | 33775 ft | 448 kts | 141° |
| 2026-05-06 11:53 | 41.03226 | 22.38037 | 33398 ft | 445 kts | 141° |
| 2026-05-06 11:54 | 41.00817 | 22.40606 | 33021 ft | 442 kts | 141° |
| 2026-05-06 11:54 | 40.98432 | 22.43156 | 32650 ft | 439 kts | 140° |
| 2026-05-06 11:54 | 40.96061 | 22.45694 | 32275 ft | 437 kts | 140° |
| 2026-05-06 11:54 | 40.93705 | 22.48217 | 31909 ft | 434 kts | 141° |
| 2026-05-06 11:55 | 40.91359 | 22.50727 | 31531 ft | 432 kts | 141° |
| 2026-05-06 11:55 | 40.89050 | 22.53196 | 31160 ft | 430 kts | 141° |
| 2026-05-06 11:55 | 40.86719 | 22.55687 | 30786 ft | 428 kts | 141° |
| 2026-05-06 11:55 | 40.84400 | 22.58161 | 30424 ft | 426 kts | 141° |
| 2026-05-06 11:56 | 40.82101 | 22.60612 | 30057 ft | 424 kts | 141° |
| 2026-05-06 11:56 | 40.79808 | 22.63054 | 29687 ft | 422 kts | 141° |
| 2026-05-06 11:56 | 40.77563 | 22.65443 | 29320 ft | 419 kts | 141° |
| 2026-05-06 11:56 | 40.75295 | 22.67854 | 28934 ft | 417 kts | 141° |
| 2026-05-06 11:57 | 40.73037 | 22.70251 | 28559 ft | 415 kts | 141° |
| 2026-05-06 11:57 | 40.70791 | 22.72633 | 28182 ft | 413 kts | 141° |
| 2026-05-06 11:57 | 40.68550 | 22.75008 | 27805 ft | 411 kts | 141° |
| 2026-05-06 11:57 | 40.66327 | 22.77363 | 27429 ft | 409 kts | 141° |
| 2026-05-06 11:58 | 40.64118 | 22.79702 | 27058 ft | 407 kts | 141° |
| 2026-05-06 11:58 | 40.61919 | 22.82026 | 26683 ft | 404 kts | 141° |
| 2026-05-06 11:58 | 40.59730 | 22.84338 | 26315 ft | 402 kts | 141° |
| 2026-05-06 11:58 | 40.57555 | 22.86633 | 25946 ft | 399 kts | 141° |
| 2026-05-06 11:59 | 40.55394 | 22.88911 | 25578 ft | 397 kts | 141° |
| 2026-05-06 11:59 | 40.53238 | 22.91181 | 25214 ft | 396 kts | 141° |
| 2026-05-06 11:59 | 40.51115 | 22.93415 | 24854 ft | 393 kts | 141° |
| 2026-05-06 11:59 | 40.48982 | 22.95659 | 24493 ft | 391 kts | 141° |
| 2026-05-06 12:00 | 40.46852 | 22.97869 | 24126 ft | 390 kts | 144° |
| 2026-05-06 12:00 | 40.44547 | 22.99716 | 23790 ft | 386 kts | 155° |
| 2026-05-06 12:00 | 40.42079 | 23.01045 | 23556 ft | 379 kts | 160° |
| 2026-05-06 12:00 | 40.39621 | 23.02252 | 23297 ft | 374 kts | 161° |
| 2026-05-06 12:01 | 40.37183 | 23.03432 | 22978 ft | 372 kts | 161° |
| 2026-05-06 12:01 | 40.34764 | 23.04606 | 22638 ft | 369 kts | 160° |
| 2026-05-06 12:01 | 40.32389 | 23.05770 | 22303 ft | 367 kts | 160° |
| 2026-05-06 12:01 | 40.30000 | 23.06948 | 21956 ft | 366 kts | 160° |
| 2026-05-06 12:02 | 40.27620 | 23.08125 | 21612 ft | 364 kts | 160° |
| 2026-05-06 12:02 | 40.25253 | 23.09299 | 21259 ft | 363 kts | 160° |
| 2026-05-06 12:02 | 40.22901 | 23.10465 | 20915 ft | 361 kts | 160° |
| 2026-05-06 12:02 | 40.20553 | 23.11629 | 20571 ft | 359 kts | 160° |
| 2026-05-06 12:03 | 40.18222 | 23.12784 | 20225 ft | 357 kts | 160° |
| 2026-05-06 12:03 | 40.15902 | 23.13932 | 19886 ft | 356 kts | 160° |
| 2026-05-06 12:03 | 40.13595 | 23.15073 | 19539 ft | 354 kts | 160° |
| 2026-05-06 12:03 | 40.11297 | 23.16210 | 19202 ft | 352 kts | 160° |
| 2026-05-06 12:04 | 40.09023 | 23.17334 | 18983 ft | 346 kts | 160° |
| 2026-05-06 12:04 | 40.06775 | 23.18444 | 18660 ft | 345 kts | 160° |
| 2026-05-06 12:04 | 40.04540 | 23.19548 | 18335 ft | 342 kts | 160° |
| 2026-05-06 12:04 | 40.02315 | 23.20646 | 18005 ft | 341 kts | 160° |
| 2026-05-06 12:05 | 40.00101 | 23.21736 | 17687 ft | 339 kts | 160° |
| 2026-05-06 12:05 | 39.97897 | 23.22819 | 17357 ft | 338 kts | 160° |
| 2026-05-06 12:05 | 39.95706 | 23.23895 | 17024 ft | 336 kts | 160° |
| 2026-05-06 12:05 | 39.93548 | 23.24956 | 16702 ft | 334 kts | 160° |
| 2026-05-06 12:06 | 39.91377 | 23.26025 | 16383 ft | 332 kts | 160° |
| 2026-05-06 12:06 | 39.89210 | 23.27085 | 16055 ft | 331 kts | 160° |
| 2026-05-06 12:06 | 39.87062 | 23.28132 | 15739 ft | 329 kts | 160° |
| 2026-05-06 12:06 | 39.84923 | 23.29172 | 15420 ft | 327 kts | 160° |
| 2026-05-06 12:07 | 39.82793 | 23.30205 | 15099 ft | 325 kts | 160° |
| 2026-05-06 12:07 | 39.80676 | 23.31232 | 14773 ft | 324 kts | 160° |
| 2026-05-06 12:07 | 39.78570 | 23.32253 | 14457 ft | 322 kts | 160° |
| 2026-05-06 12:07 | 39.76473 | 23.33270 | 14130 ft | 321 kts | 160° |
| 2026-05-06 12:08 | 39.74415 | 23.34269 | 13814 ft | 319 kts | 160° |
| 2026-05-06 12:08 | 39.72343 | 23.35275 | 13511 ft | 317 kts | 160° |
| 2026-05-06 12:08 | 39.70285 | 23.36282 | 13227 ft | 314 kts | 159° |
| 2026-05-06 12:08 | 39.68241 | 23.37285 | 12876 ft | 313 kts | 159° |
| 2026-05-06 12:09 | 39.66204 | 23.38283 | 12578 ft | 311 kts | 159° |
| 2026-05-06 12:09 | 39.64184 | 23.39273 | 12275 ft | 309 kts | 159° |
| 2026-05-06 12:09 | 39.62201 | 23.40241 | 11969 ft | 307 kts | 159° |
| 2026-05-06 12:09 | 39.60197 | 23.41218 | 11648 ft | 306 kts | 159° |
| 2026-05-06 12:10 | 39.58209 | 23.42187 | 11345 ft | 304 kts | 159° |
| 2026-05-06 12:10 | 39.56227 | 23.43150 | 11048 ft | 303 kts | 159° |
| 2026-05-06 12:10 | 39.54265 | 23.44106 | 10749 ft | 300 kts | 159° |
| 2026-05-06 12:10 | 39.52306 | 23.45059 | 10419 ft | 300 kts | 159° |
| 2026-05-06 12:11 | 39.50360 | 23.46005 | 10159 ft | 296 kts | 159° |
| 2026-05-06 12:11 | 39.48456 | 23.46929 | 10030 ft | 289 kts | 159° |
| 2026-05-06 12:11 | 39.46580 | 23.47840 | 9727 ft | 288 kts | 159° |
| 2026-05-06 12:11 | 39.44738 | 23.48735 | 9452 ft | 285 kts | 159° |
| 2026-05-06 12:12 | 39.42882 | 23.49637 | 9168 ft | 283 kts | 159° |
| 2026-05-06 12:12 | 39.41039 | 23.50531 | 8891 ft | 281 kts | 159° |
| 2026-05-06 12:12 | 39.39207 | 23.51418 | 8623 ft | 280 kts | 159° |
| 2026-05-06 12:12 | 39.37379 | 23.52299 | 8336 ft | 279 kts | 159° |
| 2026-05-06 12:13 | 39.35570 | 23.53175 | 8030 ft | 278 kts | 159° |
| 2026-05-06 12:13 | 39.33756 | 23.54051 | 7736 ft | 277 kts | 159° |
| 2026-05-06 12:13 | 39.31953 | 23.54920 | 7443 ft | 276 kts | 159° |
| 2026-05-06 12:13 | 39.30185 | 23.55771 | 7240 ft | 270 kts | 159° |
| 2026-05-06 12:14 | 39.28473 | 23.56595 | 7154 ft | 255 kts | 159° |
| 2026-05-06 12:14 | 39.26854 | 23.57374 | 7049 ft | 242 kts | 159° |
| 2026-05-06 12:14 | 39.25317 | 23.58114 | 6945 ft | 229 kts | 159° |
| 2026-05-06 12:14 | 39.23861 | 23.58815 | 6786 ft | 219 kts | 158° |
| 2026-05-06 12:15 | 39.22448 | 23.59495 | 6433 ft | 215 kts | 158° |
| 2026-05-06 12:15 | 39.21048 | 23.60169 | 6016 ft | 214 kts | 158° |
| 2026-05-06 12:15 | 39.19685 | 23.60824 | 5732 ft | 206 kts | 160° |
| 2026-05-06 12:15 | 39.18327 | 23.61063 | 5580 ft | 192 kts | 181° |
| 2026-05-06 12:16 | 39.17014 | 23.60825 | 5251 ft | 191 kts | 198° |
| 2026-05-06 12:16 | 39.15819 | 23.60103 | 4961 ft | 186 kts | 206° |
| 2026-05-06 12:16 | 39.14666 | 23.59358 | 4702 ft | 184 kts | 205° |
| 2026-05-06 12:16 | 39.13523 | 23.58624 | 4510 ft | 184 kts | 205° |
| 2026-05-06 12:17 | 39.12380 | 23.57884 | 4314 ft | 184 kts | 206° |
| 2026-05-06 12:17 | 39.11284 | 23.57170 | 4181 ft | 167 kts | 206° |
| 2026-05-06 12:17 | 39.10274 | 23.56512 | 3932 ft | 158 kts | 205° |
| 2026-05-06 12:17 | 39.09310 | 23.55890 | 3871 ft | 156 kts | 205° |
| 2026-05-06 12:18 | 39.08327 | 23.55248 | 3791 ft | 160 kts | 205° |
| 2026-05-06 12:18 | 39.07343 | 23.54604 | 3730 ft | 161 kts | 206° |
| 2026-05-06 12:18 | 39.06365 | 23.53964 | 3628 ft | 155 kts | 205° |
| 2026-05-06 12:18 | 39.05413 | 23.53345 | 3557 ft | 152 kts | 205° |
| 2026-05-06 12:19 | 39.04463 | 23.52730 | 3496 ft | 153 kts | 205° |
| 2026-05-06 12:19 | 39.03521 | 23.52119 | 3426 ft | 153 kts | 205° |
| 2026-05-06 12:19 | 39.02643 | 23.51360 | 3312 ft | 155 kts | 224° |
| 2026-05-06 12:19 | 39.02079 | 23.50165 | 3143 ft | 160 kts | 249° |
| 2026-05-06 12:20 | 39.01984 | 23.48764 | 2825 ft | 159 kts | 276° |
| 2026-05-06 12:20 | 39.02207 | 23.47859 | 2564 ft | 156 kts | 294° |
| 2026-05-06 12:20 | 39.02902 | 23.46863 | 2263 ft | 151 kts | 325° |
| 2026-05-06 12:20 | 39.03884 | 23.46484 | 2044 ft | 150 kts | 356° |
| 2026-05-06 12:21 | 39.04918 | 23.46655 | 1928 ft | 151 kts | 8° |
| 2026-05-06 12:21 | 39.05949 | 23.46914 | 1741 ft | 150 kts | 7° |
| 2026-05-06 12:21 | 39.06974 | 23.47167 | 1682 ft | 151 kts | 9° |
| 2026-05-06 12:21 | 39.07995 | 23.47485 | 1466 ft | 151 kts | 12° |
| 2026-05-06 12:22 | 39.08996 | 23.47773 | 1259 ft | 143 kts | 8° |
| 2026-05-06 12:22 | 39.09968 | 23.47964 | 1074 ft | 141 kts | 6° |
| 2026-05-06 12:22 | 39.10931 | 23.48225 | 984 ft | 142 kts | 11° |
| 2026-05-06 12:22 | 39.11905 | 23.48488 | 842 ft | 144 kts | 7° |
| 2026-05-06 12:23 | 39.12889 | 23.48692 | 741 ft | 142 kts | 6° |
| 2026-05-06 12:23 | 39.13867 | 23.48891 | 582 ft | 145 kts | 7° |
| 2026-05-06 12:23 | 39.14864 | 23.49140 | 411 ft | 147 kts | 12° |
| 2026-05-06 12:23 | 39.15840 | 23.49518 | 210 ft | 144 kts | 15° |
| 2026-05-06 12:24 | 39.16765 | 23.49929 | 68 ft | 142 kts | 18° |
| 2026-05-06 12:24 | 39.17699 | 23.50347 | 110 ft | 141 kts | 15° |
| 2026-05-06 12:24 | 39.18612 | 23.50717 | 658 ft | 142 kts | 14° |
| 2026-05-06 12:24 | 39.19688 | 23.51047 | 881 ft | 179 kts | 10° |
| 2026-05-06 12:25 | 39.20920 | 23.51372 | 1479 ft | 182 kts | 10° |
| 2026-05-06 12:25 | 39.22170 | 23.51707 | 1512 ft | 184 kts | 10° |
| 2026-05-06 12:25 | 39.23451 | 23.52054 | 1564 ft | 191 kts | 10° |
| 2026-05-06 12:25 | 39.24762 | 23.52409 | 1598 ft | 193 kts | 11° |
| 2026-05-06 12:26 | 39.26041 | 23.52756 | 1878 ft | 186 kts | 11° |
| 2026-05-06 12:26 | 39.27350 | 23.53123 | 2641 ft | 198 kts | 12° |
| 2026-05-06 12:26 | 39.28604 | 23.54023 | 3102 ft | 219 kts | 50° |
| 2026-05-06 12:26 | 39.29147 | 23.55916 | 3557 ft | 236 kts | 91° |
| 2026-05-06 12:27 | 39.28754 | 23.57960 | 3965 ft | 238 kts | 120° |
| 2026-05-06 12:27 | 39.27585 | 23.59390 | 3987 ft | 233 kts | 156° |
| 2026-05-06 12:27 | 39.26017 | 23.59955 | 4004 ft | 237 kts | 169° |
| 2026-05-06 12:27 | 39.24393 | 23.60294 | 3995 ft | 236 kts | 171° |
| 2026-05-06 12:28 | 39.22773 | 23.60620 | 3983 ft | 235 kts | 171° |
| 2026-05-06 12:28 | 39.21183 | 23.60949 | 3978 ft | 233 kts | 170° |
| 2026-05-06 12:28 | 39.19590 | 23.61289 | 3987 ft | 232 kts | 170° |
| 2026-05-06 12:28 | 39.17989 | 23.61277 | 3997 ft | 231 kts | 191° |
| 2026-05-06 12:29 | 39.16465 | 23.60626 | 4003 ft | 232 kts | 204° |
| 2026-05-06 12:29 | 39.14997 | 23.59687 | 4038 ft | 234 kts | 206° |
| 2026-05-06 12:29 | 39.13564 | 23.58729 | 3829 ft | 228 kts | 207° |
| 2026-05-06 12:29 | 39.12172 | 23.57790 | 3616 ft | 221 kts | 206° |
| 2026-05-06 12:30 | 39.10831 | 23.56895 | 3397 ft | 214 kts | 206° |
| 2026-05-06 12:30 | 39.09521 | 23.56030 | 3148 ft | 209 kts | 206° |
| 2026-05-06 12:30 | 39.08258 | 23.55200 | 2903 ft | 204 kts | 206° |
| 2026-05-06 12:30 | 39.06999 | 23.54379 | 2652 ft | 201 kts | 206° |
| 2026-05-06 12:31 | 39.05760 | 23.53574 | 2389 ft | 199 kts | 206° |
| 2026-05-06 12:31 | 39.04538 | 23.52779 | 2134 ft | 195 kts | 207° |
| 2026-05-06 12:31 | 39.03361 | 23.52011 | 2033 ft | 183 kts | 207° |
| 2026-05-06 12:31 | 39.02443 | 23.51036 | 1981 ft | 164 kts | 239° |
| 2026-05-06 12:32 | 39.02088 | 23.49685 | 1997 ft | 155 kts | 267° |
| 2026-05-06 12:32 | 39.02249 | 23.48391 | 1981 ft | 144 kts | 294° |
| 2026-05-06 12:32 | 39.02814 | 23.47382 | 2000 ft | 142 kts | 318° |
| 2026-05-06 12:32 | 39.03673 | 23.46775 | 1998 ft | 143 kts | 341° |
| 2026-05-06 12:33 | 39.04654 | 23.46679 | 1993 ft | 142 kts | 5° |
| 2026-05-06 12:33 | 39.05628 | 23.46905 | 1996 ft | 143 kts | 8° |
| 2026-05-06 12:33 | 39.06608 | 23.47156 | 1996 ft | 144 kts | 9° |
| 2026-05-06 12:33 | 39.07599 | 23.47419 | 1791 ft | 146 kts | 9° |
| 2026-05-06 12:34 | 39.08577 | 23.47681 | 1642 ft | 143 kts | 9° |
| 2026-05-06 12:34 | 39.09530 | 23.47940 | 1600 ft | 141 kts | 9° |
| 2026-05-06 12:34 | 39.10481 | 23.48208 | 1593 ft | 140 kts | 9° |
| 2026-05-06 12:34 | 39.11446 | 23.48483 | 1371 ft | 149 kts | 10° |
| 2026-05-06 12:35 | 39.12454 | 23.48703 | 988 ft | 141 kts | 6° |
| 2026-05-06 12:35 | 39.13397 | 23.48850 | 679 ft | 132 kts | 4° |
| 2026-05-06 12:35 | 39.14319 | 23.48990 | 482 ft | 136 kts | 8° |
| 2026-05-06 12:35 | 39.15247 | 23.49296 | 399 ft | 140 kts | 13° |
| 2026-05-06 12:36 | 39.16185 | 23.49684 | 180 ft | 142 kts | 16° |
| 2026-05-06 12:36 | 39.17112 | 23.50096 | 26 ft | 138 kts | 17° |
| 2026-05-06 12:36 | 39.17819 | 23.50415 | 37 ft | 55 kts | 20° |
| 2026-05-06 12:36 | 39.17923 | 23.50398 | 39 ft | 12 kts | 278° |
| 2026-05-06 12:37 | 39.17945 | 23.50269 | 38 ft | 12 kts | 289° |
| 2026-05-06 12:37 | 39.17947 | 23.50265 | 38 ft | 0 kts | 289° |